Time;durP1;ratioP1;P1;durP2;ratioP2;P2;SDS_P1;SDS_P2;PMS_P1;PMS_P2;Temp;Humidity;BMP_temperature;BMP_pressure;BME280_temperature;BME280_humidity;BME280_pressure;Samples;Min_cycle;Max_cycle;Signal;HPM_P1;HPM_P2
2022/10/13 00:00:47;;;;;;;8.33;8.13;;;10.70;99.90;;;;;;5098407;28;20283;-78
2022/10/13 00:03:15;;;;;;;8.37;8.17;;;10.60;99.90;;;;;;5086697;28;20256;-79
2022/10/13 00:05:43;;;;;;;8.27;8.07;;;10.60;99.90;;;;;;5076833;28;20250;-77
2022/10/13 00:08:12;;;;;;;8.70;8.50;;;10.60;99.90;;;;;;5076236;28;20753;-77
2022/10/13 00:10:41;;;;;;;9.20;8.90;;;10.50;99.90;;;;;;5078291;28;20240;-78
2022/10/13 00:13:09;;;;;;;9.00;8.70;;;10.50;99.90;;;;;;5077520;28;20234;-78
2022/10/13 00:15:39;;;;;;;9.33;9.03;;;10.50;99.90;;;;;;5081542;28;20277;-78
2022/10/13 00:18:07;;;;;;;9.00;8.70;;;10.50;99.90;;;;;;5084305;28;20345;-75
2022/10/13 00:20:36;;;;;;;9.20;8.90;;;10.50;99.90;;;;;;5082006;28;20241;-78
2022/10/13 00:23:03;;;;;;;9.10;8.80;;;10.50;99.90;;;;;;5078913;28;20238;-78
2022/10/13 00:25:31;;;;;;;9.20;8.90;;;10.40;99.90;;;;;;5077608;28;20230;-77
2022/10/13 00:28:00;;;;;;;9.13;8.83;;;10.40;99.90;;;;;;5077829;28;20237;-78
2022/10/13 00:30:27;;;;;;;9.17;8.87;;;10.40;99.90;;;;;;5077566;28;20226;-78
2022/10/13 00:32:55;;;;;;;8.93;8.67;;;10.40;99.90;;;;;;5077910;28;20236;-78
2022/10/13 00:35:22;;;;;;;9.03;8.73;;;10.40;99.90;;;;;;5079005;28;20218;-77
2022/10/13 00:37:49;;;;;;;9.03;8.77;;;10.30;99.90;;;;;;5076799;28;20233;-78
2022/10/13 00:40:17;;;;;;;9.10;8.80;;;10.30;99.90;;;;;;5075495;28;20236;-78
2022/10/13 00:42:45;;;;;;;9.13;8.83;;;10.20;99.90;;;;;;5076843;28;20244;-77
2022/10/13 00:45:25;;;;;;;8.80;8.60;;;10.20;99.90;;;;;;5075703;28;20232;-77
2022/10/13 00:47:56;;;;;;;8.83;8.63;;;10.20;99.90;;;;;;5076909;28;20237;-78
2022/10/13 00:50:28;;;;;;;9.20;8.90;;;10.10;99.90;;;;;;5077136;28;20234;-77
2022/10/13 00:52:56;;;;;;;9.53;9.23;;;10.10;99.90;;;;;;5076978;28;20230;-77
2022/10/13 00:55:29;;;;;;;9.10;8.80;;;10.10;99.90;;;;;;5075448;28;20234;-77
2022/10/13 00:58:00;;;;;;;8.80;8.60;;;10.00;99.90;;;;;;5076192;28;20236;-78
2022/10/13 01:00:29;;;;;;;8.80;8.60;;;9.90;99.90;;;;;;5076080;28;20324;-79
2022/10/13 01:02:57;;;;;;;9.00;8.73;;;9.80;99.90;;;;;;5075876;28;20233;-78
2022/10/13 01:05:25;;;;;;;9.10;8.80;;;9.70;99.90;;;;;;5062044;28;20223;-78
2022/10/13 01:07:53;;;;;;;9.27;8.97;;;9.60;99.90;;;;;;5071293;28;20240;-78
2022/10/13 01:10:31;;;;;;;9.10;8.80;;;9.50;99.90;;;;;;5081576;28;20272;-78
2022/10/13 01:13:04;;;;;;;8.80;8.60;;;9.50;99.90;;;;;;5094669;28;20248;-78
2022/10/13 01:15:42;;;;;;;9.17;8.87;;;9.50;99.90;;;;;;5082149;28;21062;-77
2022/10/13 01:18:22;;;;;;;8.90;8.63;;;9.40;99.90;;;;;;5075060;28;20265;-76
2022/10/13 01:21:02;;;;;;;9.03;8.73;;;9.40;99.90;;;;;;5078418;28;20332;-76
2022/10/13 01:24:30;;;;;;;9.10;8.80;;;9.30;99.90;;;;;;5079448;28;20292;-79
2022/10/13 01:27:34;;;;;;;9.03;8.73;;;9.30;99.90;;;;;;5061635;28;20237;-80
2022/10/13 01:30:18;;;;;;;9.00;8.70;;;9.30;99.90;;;;;;5071958;28;20234;-76
2022/10/13 01:33:10;;;;;;;8.60;8.40;;;9.20;99.90;;;;;;5079906;28;20233;-78
2022/10/13 01:35:51;;;;;;;8.57;8.37;;;9.20;99.90;;;;;;5079387;28;20298;-79
2022/10/13 01:38:33;;;;;;;9.20;8.90;;;9.20;99.90;;;;;;5080381;28;20281;-78
2022/10/13 01:41:09;;;;;;;9.10;8.80;;;9.10;99.90;;;;;;5079417;28;20226;-78
2022/10/13 01:43:42;;;;;;;8.70;8.50;;;9.10;99.90;;;;;;5080492;28;20340;-78
2022/10/13 01:46:15;;;;;;;8.97;8.70;;;9.00;99.90;;;;;;5077803;28;20244;-77
2022/10/13 01:48:45;;;;;;;8.87;8.63;;;9.00;99.90;;;;;;5078774;28;20257;-77
2022/10/13 01:51:18;;;;;;;9.10;8.80;;;9.00;99.90;;;;;;5079888;28;20701;-77
2022/10/13 01:53:47;;;;;;;9.10;8.80;;;9.00;99.90;;;;;;5093883;28;20268;-77
2022/10/13 01:56:15;;;;;;;9.07;8.77;;;9.10;99.90;;;;;;5098071;28;20225;-77
2022/10/13 01:58:42;;;;;;;9.20;8.90;;;9.00;99.90;;;;;;5098411;28;20768;-79
2022/10/13 02:01:32;;;;;;;9.00;8.70;;;9.00;99.90;;;;;;5099157;28;20693;-77
2022/10/13 02:04:19;;;;;;;9.00;8.70;;;9.00;99.90;;;;;;5098523;28;20213;-77
2022/10/13 02:06:53;;;;;;;8.77;8.57;;;9.10;99.90;;;;;;5098080;28;20319;-77
2022/10/13 02:09:27;;;;;;;8.73;8.53;;;9.10;99.90;;;;;;5098242;28;20225;-76
2022/10/13 02:12:00;;;;;;;8.80;8.60;;;9.10;99.90;;;;;;5098522;28;20235;-77
2022/10/13 02:14:30;;;;;;;8.80;8.60;;;9.00;99.90;;;;;;5097704;28;20230;-77
2022/10/13 02:17:04;;;;;;;8.63;8.43;;;9.00;99.90;;;;;;5097318;28;20252;-77
2022/10/13 02:19:36;;;;;;;8.60;8.40;;;9.00;99.90;;;;;;5098562;28;20221;-76
2022/10/13 02:22:04;;;;;;;8.40;8.20;;;9.00;99.90;;;;;;5086933;28;20229;-77
2022/10/13 02:24:32;;;;;;;8.20;8.00;;;9.00;99.90;;;;;;5078049;28;20317;-77
2022/10/13 02:27:00;;;;;;;8.30;8.10;;;9.00;99.90;;;;;;5077722;28;20294;-77
2022/10/13 02:29:28;;;;;;;8.27;8.07;;;9.10;99.90;;;;;;5077944;28;20230;-77
2022/10/13 02:31:55;;;;;;;8.50;8.30;;;9.10;99.90;;;;;;5077456;28;20325;-77
2022/10/13 02:34:24;;;;;;;8.60;8.40;;;9.10;99.90;;;;;;5077414;28;20297;-77
2022/10/13 02:36:52;;;;;;;8.50;8.30;;;9.10;99.90;;;;;;5078146;28;20234;-78
2022/10/13 02:39:19;;;;;;;8.53;8.33;;;9.10;99.90;;;;;;5077635;28;20330;-77
2022/10/13 02:41:47;;;;;;;8.50;8.30;;;9.10;99.90;;;;;;5077628;28;20261;-77
2022/10/13 02:44:15;;;;;;;8.50;8.30;;;9.10;99.90;;;;;;5077646;28;20304;-77
2022/10/13 02:46:42;;;;;;;8.30;8.10;;;9.00;99.90;;;;;;5077110;28;20250;-77
2022/10/13 02:49:11;;;;;;;8.30;8.10;;;9.00;99.90;;;;;;5077651;28;20298;-78
2022/10/13 02:51:40;;;;;;;8.40;8.20;;;8.90;99.90;;;;;;5077195;28;20345;-78
2022/10/13 02:54:07;;;;;;;8.33;8.13;;;8.90;99.90;;;;;;5077542;28;20234;-77
2022/10/13 02:56:35;;;;;;;8.60;8.40;;;8.90;99.90;;;;;;5076333;28;20325;-78
2022/10/13 02:59:03;;;;;;;8.10;7.90;;;8.90;99.90;;;;;;5077740;28;20265;-77
2022/10/13 03:01:30;;;;;;;8.30;8.10;;;8.90;99.90;;;;;;5077691;28;20284;-77
2022/10/13 03:03:58;;;;;;;8.50;8.30;;;9.00;99.90;;;;;;5077412;28;20269;-77
2022/10/13 03:06:25;;;;;;;8.53;8.33;;;9.00;99.90;;;;;;5076666;28;20687;-77
2022/10/13 03:08:54;;;;;;;8.70;8.50;;;9.00;99.90;;;;;;5073906;28;20259;-77
2022/10/13 03:11:22;;;;;;;8.43;8.23;;;8.90;99.90;;;;;;5085847;28;20258;-77
2022/10/13 03:13:49;;;;;;;8.57;8.37;;;8.90;99.90;;;;;;5084894;28;20290;-77
2022/10/13 03:16:17;;;;;;;8.50;8.30;;;9.00;99.90;;;;;;5088253;28;20324;-77
2022/10/13 03:18:44;;;;;;;8.30;8.10;;;9.00;99.90;;;;;;5098170;28;20252;-77
2022/10/13 03:21:12;;;;;;;8.43;8.23;;;9.00;99.90;;;;;;5098356;28;20310;-76
2022/10/13 03:23:40;;;;;;;8.23;8.03;;;9.10;99.90;;;;;;5100183;28;20237;-76
2022/10/13 03:26:09;;;;;;;8.23;8.03;;;9.10;99.90;;;;;;5102515;28;20241;-76
2022/10/13 03:28:36;;;;;;;8.17;7.97;;;9.10;99.90;;;;;;5101376;28;20303;-77
2022/10/13 03:31:07;;;;;;;8.20;8.00;;;9.20;99.90;;;;;;5097953;28;20297;-76
2022/10/13 03:33:35;;;;;;;8.50;8.30;;;9.20;99.90;;;;;;5101456;28;20230;-76
2022/10/13 03:36:06;;;;;;;8.50;8.30;;;9.20;99.90;;;;;;5099110;28;20225;-76
2022/10/13 03:38:35;;;;;;;8.70;8.50;;;9.20;99.90;;;;;;5100043;28;20222;-76
2022/10/13 03:41:08;;;;;;;8.40;8.20;;;9.30;99.90;;;;;;5098902;28;20237;-77
2022/10/13 03:43:36;;;;;;;7.90;7.70;;;9.30;99.90;;;;;;5095895;28;20233;-77
2022/10/13 03:46:06;;;;;;;8.40;8.20;;;9.30;99.90;;;;;;5096266;28;20321;-78
2022/10/13 03:48:35;;;;;;;8.10;7.90;;;9.30;99.90;;;;;;5096636;28;20321;-77
2022/10/13 03:51:06;;;;;;;7.90;7.70;;;9.30;99.90;;;;;;5097068;28;20275;-76
2022/10/13 03:53:34;;;;;;;7.80;7.60;;;9.40;99.90;;;;;;5096640;28;20276;-77
2022/10/13 03:56:02;;;;;;;8.07;7.87;;;9.40;99.90;;;;;;5095797;28;20230;-77
2022/10/13 03:58:31;;;;;;;8.17;7.97;;;9.50;99.90;;;;;;5091054;28;20302;-77
2022/10/13 04:01:04;;;;;;;8.53;8.33;;;9.40;99.90;;;;;;5093666;28;20229;-77
2022/10/13 04:03:33;;;;;;;8.30;8.10;;;9.50;99.90;;;;;;5096588;28;20225;-77
2022/10/13 04:06:01;;;;;;;8.40;8.20;;;9.50;99.90;;;;;;5095922;28;20230;-77
2022/10/13 04:08:29;;;;;;;8.43;8.23;;;9.50;99.90;;;;;;5097050;28;20229;-78
2022/10/13 04:11:01;;;;;;;8.40;8.20;;;9.50;99.90;;;;;;5097750;28;20256;-77
2022/10/13 04:13:30;;;;;;;8.60;8.40;;;9.50;99.90;;;;;;5097296;28;20260;-77
2022/10/13 04:16:03;;;;;;;8.60;8.40;;;9.60;99.90;;;;;;5095643;28;20303;-77
2022/10/13 04:18:31;;;;;;;8.43;8.23;;;9.60;99.90;;;;;;5097313;28;20236;-77
2022/10/13 04:20:59;;;;;;;8.57;8.37;;;9.60;99.90;;;;;;5097046;28;20261;-77
2022/10/13 04:23:26;;;;;;;8.40;8.20;;;9.60;99.90;;;;;;5098171;28;20253;-77
2022/10/13 04:25:55;;;;;;;8.43;8.23;;;9.50;99.90;;;;;;5096876;28;20343;-77
2022/10/13 04:28:22;;;;;;;9.20;8.90;;;9.50;99.90;;;;;;5097739;28;20221;-78
2022/10/13 04:30:52;;;;;;;8.97;8.70;;;9.50;99.90;;;;;;5097218;28;20229;-77
2022/10/13 04:33:19;;;;;;;8.50;8.30;;;9.50;99.90;;;;;;5097228;28;20229;-77
2022/10/13 04:35:49;;;;;;;8.63;8.43;;;9.50;99.90;;;;;;5096303;28;20293;-77
2022/10/13 04:38:16;;;;;;;8.83;8.63;;;9.50;99.90;;;;;;5096728;28;20240;-77
2022/10/13 04:40:44;;;;;;;8.67;8.47;;;9.50;99.90;;;;;;5096639;28;20234;-77
2022/10/13 04:43:11;;;;;;;8.93;8.67;;;9.50;99.90;;;;;;5077913;28;20226;-78
2022/10/13 04:45:39;;;;;;;9.17;8.87;;;9.50;99.90;;;;;;5076177;28;20226;-78
2022/10/13 04:48:08;;;;;;;9.10;8.80;;;9.50;99.90;;;;;;5077682;28;20258;-78
2022/10/13 04:50:36;;;;;;;8.60;8.40;;;9.60;99.90;;;;;;5076827;28;20241;-76
2022/10/13 04:53:04;;;;;;;9.00;8.70;;;9.60;99.90;;;;;;5076596;28;20234;-76
2022/10/13 04:55:31;;;;;;;8.70;8.50;;;9.60;99.90;;;;;;5076588;28;20258;-76
2022/10/13 04:57:59;;;;;;;8.80;8.60;;;9.60;99.90;;;;;;5076257;28;20310;-76
2022/10/13 05:00:26;;;;;;;9.10;8.80;;;9.70;99.90;;;;;;5077135;28;20226;-76
2022/10/13 05:02:54;;;;;;;8.43;8.23;;;9.70;99.90;;;;;;5076398;28;20675;-77
2022/10/13 05:05:23;;;;;;;9.00;8.70;;;9.70;99.90;;;;;;5075194;28;20230;-76
2022/10/13 05:07:53;;;;;;;8.50;8.30;;;9.70;99.90;;;;;;5075880;28;20214;-77
2022/10/13 05:10:21;;;;;;;8.70;8.50;;;9.70;99.90;;;;;;5076155;28;20242;-78
2022/10/13 05:12:48;;;;;;;8.70;8.50;;;9.70;99.90;;;;;;5076297;28;20230;-78
2022/10/13 05:15:16;;;;;;;8.83;8.60;;;9.70;99.90;;;;;;5075266;28;20234;-77
2022/10/13 05:17:44;;;;;;;8.93;8.63;;;9.80;99.90;;;;;;5075725;28;20244;-77
2022/10/13 05:20:12;;;;;;;9.60;9.30;;;9.80;99.90;;;;;;5076719;28;20301;-77
2022/10/13 05:22:41;;;;;;;9.80;9.50;;;9.80;99.90;;;;;;5076523;28;20254;-76
2022/10/13 05:25:09;;;;;;;10.20;9.90;;;9.80;99.90;;;;;;5075430;28;20296;-77
2022/10/13 05:27:37;;;;;;;9.70;9.40;;;9.80;99.90;;;;;;5083835;28;20230;-77
2022/10/13 05:30:05;;;;;;;9.87;9.57;;;9.80;99.90;;;;;;5085251;28;20237;-77
2022/10/13 05:32:34;;;;;;;9.70;9.40;;;9.90;99.90;;;;;;5088580;28;20261;-77
2022/10/13 05:35:02;;;;;;;10.13;9.83;;;9.90;99.90;;;;;;5095474;28;20257;-77
2022/10/13 05:37:30;;;;;;;9.97;9.67;;;9.90;99.90;;;;;;5099348;28;20218;-77
2022/10/13 05:39:58;;;;;;;10.00;9.70;;;10.00;99.90;;;;;;5099620;28;20237;-76
2022/10/13 05:42:28;;;;;;;9.90;9.60;;;10.00;99.90;;;;;;5098804;28;20246;-76
2022/10/13 05:44:57;;;;;;;9.73;9.43;;;10.00;99.90;;;;;;5096580;28;20230;-76
2022/10/13 05:47:27;;;;;;;9.60;9.30;;;10.00;99.90;;;;;;5098817;28;20226;-77
2022/10/13 05:49:55;;;;;;;9.60;9.30;;;10.00;99.90;;;;;;5106254;28;20259;-76
2022/10/13 05:52:23;;;;;;;9.57;9.27;;;10.00;99.90;;;;;;5118101;28;20205;-76
2022/10/13 05:54:55;;;;;;;9.60;9.30;;;10.00;99.90;;;;;;5116303;28;20245;-76
2022/10/13 05:57:27;;;;;;;9.63;9.33;;;10.00;99.90;;;;;;5114421;28;20205;-76
2022/10/13 06:00:00;;;;;;;9.67;9.37;;;10.00;99.90;;;;;;5110626;28;20237;-77
2022/10/13 06:02:34;;;;;;;9.53;9.23;;;10.00;99.90;;;;;;5108496;28;20254;-76
2022/10/13 06:05:03;;;;;;;9.70;9.40;;;10.00;99.90;;;;;;5099616;28;20233;-77
2022/10/13 06:07:31;;;;;;;9.30;9.00;;;10.00;99.90;;;;;;5098576;28;20344;-77
2022/10/13 06:09:59;;;;;;;9.70;9.40;;;9.90;99.90;;;;;;5099395;28;20237;-77
2022/10/13 06:12:28;;;;;;;9.53;9.23;;;10.00;99.90;;;;;;5098953;28;20302;-77
2022/10/13 06:14:56;;;;;;;9.37;9.07;;;10.10;99.90;;;;;;5098839;28;20317;-76
2022/10/13 06:17:23;;;;;;;9.70;9.40;;;10.10;99.90;;;;;;5098331;28;20267;-78
2022/10/13 06:19:51;;;;;;;9.20;8.90;;;10.10;99.90;;;;;;5098674;28;20253;-78
2022/10/13 06:22:20;;;;;;;9.37;9.07;;;10.00;99.90;;;;;;5098834;28;20252;-77
2022/10/13 06:24:48;;;;;;;9.83;9.53;;;10.10;99.90;;;;;;5097801;28;20241;-76
2022/10/13 06:27:15;;;;;;;9.60;9.30;;;10.10;99.90;;;;;;5098570;28;20325;-76
2022/10/13 06:29:45;;;;;;;9.47;9.17;;;10.20;99.90;;;;;;5098275;28;20261;-78
2022/10/13 06:32:12;;;;;;;9.40;9.10;;;10.20;99.90;;;;;;5102169;28;20336;-77
2022/10/13 06:34:40;;;;;;;9.20;8.90;;;10.20;99.90;;;;;;5103561;28;20259;-77
2022/10/13 06:37:07;;;;;;;8.97;8.70;;;10.30;99.90;;;;;;5099096;28;20230;-77
2022/10/13 06:39:35;;;;;;;9.52;9.23;;;10.20;99.90;;;;;;5098807;28;20459;-77
2022/10/13 06:42:03;;;;;;;9.73;9.43;;;10.20;99.90;;;;;;5100096;28;20260;-78
2022/10/13 06:44:31;;;;;;;9.50;9.20;;;10.30;99.90;;;;;;5098730;28;20225;-78
2022/10/13 06:47:01;;;;;;;9.20;8.90;;;10.40;99.90;;;;;;5098586;28;20241;-77
2022/10/13 06:49:29;;;;;;;9.40;9.10;;;10.50;99.90;;;;;;5099168;28;20233;-78
2022/10/13 06:51:58;;;;;;;9.50;9.20;;;10.50;99.90;;;;;;5101809;28;20229;-80
2022/10/13 06:54:26;;;;;;;9.37;9.07;;;10.50;99.90;;;;;;5101410;28;20236;-80
2022/10/13 06:56:53;;;;;;;9.30;9.00;;;10.50;99.90;;;;;;5099189;28;20287;-79
2022/10/13 06:59:21;;;;;;;9.30;9.00;;;10.50;99.90;;;;;;5081288;28;20284;-80
2022/10/13 07:01:50;;;;;;;9.47;9.17;;;10.50;99.90;;;;;;5081470;28;20296;-80
2022/10/13 07:04:19;;;;;;;9.70;9.40;;;10.50;99.90;;;;;;5080820;28;20325;-79
2022/10/13 07:06:47;;;;;;;9.60;9.30;;;10.50;99.90;;;;;;5080304;28;20222;-80
2022/10/13 07:09:15;;;;;;;9.77;9.47;;;10.50;99.90;;;;;;5080889;28;20253;-80
2022/10/13 07:11:47;;;;;;;9.60;9.30;;;10.60;99.90;;;;;;5080900;28;20269;-80
2022/10/13 07:14:14;;;;;;;9.63;9.33;;;10.60;99.90;;;;;;5081083;28;20234;-80
2022/10/13 07:16:42;;;;;;;9.53;9.23;;;10.60;99.90;;;;;;5079745;28;20254;-79
2022/10/13 07:19:10;;;;;;;9.40;9.10;;;10.60;99.90;;;;;;5080522;28;20290;-80
2022/10/13 07:21:39;;;;;;;9.40;9.10;;;10.60;99.90;;;;;;5080820;28;20226;-79
2022/10/13 07:24:08;;;;;;;9.43;9.13;;;10.60;99.90;;;;;;5080307;28;20373;-80
2022/10/13 07:26:36;;;;;;;9.50;9.20;;;10.60;99.90;;;;;;5079583;28;20234;-80
2022/10/13 07:29:04;;;;;;;9.33;9.03;;;10.60;99.90;;;;;;5080176;28;20302;-80
2022/10/13 07:31:32;;;;;;;9.70;9.40;;;10.60;99.90;;;;;;5080944;28;20270;-80
2022/10/13 07:34:00;;;;;;;9.50;9.20;;;10.60;99.90;;;;;;5082433;28;20230;-80
2022/10/13 07:36:28;;;;;;;9.20;8.90;;;10.60;99.90;;;;;;5080313;28;20265;-79
2022/10/13 07:38:57;;;;;;;9.40;9.10;;;10.60;99.90;;;;;;5080563;28;20353;-80
2022/10/13 07:41:24;;;;;;;9.13;8.83;;;10.60;99.90;;;;;;5081688;28;20269;-80
2022/10/13 07:43:55;;;;;;;9.40;9.10;;;10.60;99.90;;;;;;5080307;28;20699;-79
2022/10/13 07:46:23;;;;;;;9.50;9.20;;;10.60;99.90;;;;;;5066534;28;20219;-80
2022/10/13 07:48:52;;;;;;;9.30;9.00;;;10.60;99.90;;;;;;5066241;28;20255;-79
2022/10/13 07:51:23;;;;;;;9.27;8.97;;;10.70;99.90;;;;;;5060467;28;20337;-80
2022/10/13 07:53:51;;;;;;;9.20;8.90;;;10.70;99.90;;;;;;5059524;28;20239;-82
2022/10/13 07:56:22;;;;;;;9.20;8.90;;;10.80;99.90;;;;;;5059099;28;20285;-82
2022/10/13 07:58:50;;;;;;;9.00;8.70;;;10.80;99.90;;;;;;5060175;28;20227;-81
2022/10/13 08:01:18;;;;;;;9.30;9.00;;;10.80;99.90;;;;;;5059901;28;20262;-80
2022/10/13 08:03:47;;;;;;;9.30;9.00;;;10.90;99.90;;;;;;5069905;28;20260;-80
2022/10/13 08:06:15;;;;;;;9.10;8.80;;;10.90;99.90;;;;;;5095160;28;20740;-79
2022/10/13 08:08:43;;;;;;;9.13;8.83;;;10.90;99.90;;;;;;5079552;28;20234;-80
2022/10/13 08:11:15;;;;;;;9.47;9.17;;;11.00;99.90;;;;;;5079743;28;20238;-79
2022/10/13 08:13:48;;;;;;;9.20;8.90;;;11.00;99.90;;;;;;5095221;28;20225;-81
2022/10/13 08:16:16;;;;;;;9.23;8.93;;;11.00;99.90;;;;;;5085869;28;20228;-81
2022/10/13 08:18:45;;;;;;;9.13;8.83;;;11.00;99.90;;;;;;5085177;28;20226;-82
2022/10/13 08:21:16;;;;;;;9.20;8.90;;;11.00;99.90;;;;;;5081185;28;20229;-81
2022/10/13 08:23:44;;;;;;;9.40;9.10;;;11.10;99.90;;;;;;5079765;28;20234;-81
2022/10/13 08:26:21;;;;;;;8.93;8.63;;;11.10;99.90;;;;;;5081452;28;20229;-81
2022/10/13 08:28:50;;;;;;;8.90;8.60;;;11.10;99.90;;;;;;5092750;28;20257;-81
2022/10/13 08:31:18;;;;;;;9.13;8.83;;;11.10;99.90;;;;;;5079680;28;20268;-81
2022/10/13 08:33:54;;;;;;;9.30;9.00;;;11.20;99.90;;;;;;5080380;28;20317;-80
2022/10/13 08:36:22;;;;;;;8.70;8.50;;;11.20;99.90;;;;;;5079534;28;20242;-81
2022/10/13 08:38:52;;;;;;;9.20;8.90;;;11.30;99.90;;;;;;5078927;28;20234;-81
2022/10/13 08:41:25;;;;;;;9.30;9.00;;;11.30;99.90;;;;;;5091073;28;20232;-83
2022/10/13 08:43:58;;;;;;;9.30;9.00;;;11.30;99.90;;;;;;5088188;28;20256;-83
2022/10/13 08:46:29;;;;;;;9.53;9.23;;;11.40;99.90;;;;;;5086064;28;20317;-84
2022/10/13 08:48:57;;;;;;;9.37;9.07;;;11.50;99.90;;;;;;5086114;28;20233;-83
2022/10/13 08:51:27;;;;;;;9.33;9.03;;;11.50;99.90;;;;;;5097791;28;20237;-83
2022/10/13 08:53:56;;;;;;;9.27;8.97;;;11.60;99.90;;;;;;5090865;28;20222;-83
2022/10/13 08:56:27;;;;;;;9.20;8.90;;;11.60;99.90;;;;;;5057813;28;20282;-83
2022/10/13 08:58:57;;;;;;;9.00;8.70;;;11.70;99.90;;;;;;5059174;28;20239;-81
2022/10/13 09:01:29;;;;;;;9.20;8.90;;;11.70;99.90;;;;;;5072691;28;20272;-81
2022/10/13 09:04:10;;;;;;;9.30;9.00;;;11.80;99.90;;;;;;5091157;28;20772;-82
2022/10/13 09:06:43;;;;;;;9.00;8.70;;;11.80;99.90;;;;;;5100437;28;20229;-82
2022/10/13 09:09:13;;;;;;;9.10;8.80;;;11.90;99.90;;;;;;5098963;28;20263;-82
2022/10/13 09:11:48;;;;;;;9.37;9.07;;;11.90;99.90;;;;;;5099199;28;20244;-81
2022/10/13 09:14:26;;;;;;;9.00;8.70;;;11.90;99.90;;;;;;5099225;28;21064;-83
2022/10/13 09:16:57;;;;;;;9.10;8.80;;;11.90;99.90;;;;;;5097947;28;20287;-82
2022/10/13 09:19:28;;;;;;;9.20;8.90;;;11.90;99.90;;;;;;5099375;28;20281;-83
2022/10/13 09:22:13;;;;;;;9.30;9.00;;;11.90;99.90;;;;;;5099597;28;20253;-82
2022/10/13 09:24:42;;;;;;;9.10;8.80;;;11.90;99.90;;;;;;5097900;28;20233;-83
2022/10/13 09:27:23;;;;;;;8.73;8.53;;;11.90;99.90;;;;;;5096750;28;20229;-82
2022/10/13 09:29:52;;;;;;;8.30;8.10;;;11.90;99.90;;;;;;5086511;28;20225;-82
2022/10/13 09:32:27;;;;;;;8.30;8.10;;;11.90;99.90;;;;;;5086413;28;20261;-83
2022/10/13 09:34:57;;;;;;;8.50;8.30;;;11.90;99.90;;;;;;5094603;28;20252;-84
2022/10/13 09:37:27;;;;;;;8.47;8.27;;;12.00;99.90;;;;;;5099849;28;20225;-82
2022/10/13 09:40:13;;;;;;;8.50;8.30;;;12.10;99.90;;;;;;5101492;28;20293;-81
2022/10/13 09:42:41;;;;;;;8.47;8.27;;;12.10;99.90;;;;;;5103524;28;20291;-79
2022/10/13 09:45:25;;;;;;;8.47;8.27;;;12.30;99.90;;;;;;5101186;28;20264;-78
2022/10/13 09:47:57;;;;;;;8.47;8.27;;;12.30;99.90;;;;;;5098859;28;20233;-78
2022/10/13 09:50:28;;;;;;;8.50;8.30;;;12.40;99.90;;;;;;5099250;28;20321;-78
2022/10/13 09:53:18;;;;;;;8.60;8.40;;;12.50;99.90;;;;;;5099109;28;20229;-77
2022/10/13 09:55:48;;;;;;;8.90;8.70;;;12.50;99.90;;;;;;5099443;28;20241;-80
2022/10/13 09:58:22;;;;;;;9.10;8.80;;;12.60;99.90;;;;;;5090804;28;20277;-77
2022/10/13 10:00:53;;;;;;;8.80;8.60;;;12.60;99.90;;;;;;5082893;28;20329;-78
2022/10/13 10:03:25;;;;;;;9.10;8.80;;;12.70;99.90;;;;;;5079282;28;20260;-77
2022/10/13 10:05:56;;;;;;;9.00;8.70;;;12.80;99.90;;;;;;5080622;28;20222;-77
2022/10/13 10:08:34;;;;;;;9.00;8.70;;;12.80;99.90;;;;;;5080470;28;20222;-78
2022/10/13 10:11:06;;;;;;;9.30;9.00;;;12.90;99.90;;;;;;5080346;28;20233;-77
2022/10/13 10:13:33;;;;;;;9.23;8.93;;;13.00;99.90;;;;;;5079627;28;20261;-77
2022/10/13 10:16:10;;;;;;;9.37;9.07;;;13.20;99.90;;;;;;5077669;28;20234;-77
2022/10/13 10:18:45;;;;;;;9.47;9.17;;;13.20;99.90;;;;;;5087047;28;20230;-79
2022/10/13 10:21:25;;;;;;;9.30;9.00;;;13.30;99.90;;;;;;5097683;28;20229;-79
2022/10/13 10:24:01;;;;;;;8.90;8.60;;;13.30;99.90;;;;;;5100735;28;20221;-80
2022/10/13 10:26:48;;;;;;;8.73;8.53;;;13.30;99.90;;;;;;5099496;28;20236;-83
2022/10/13 10:29:25;;;;;;;9.00;8.70;;;13.40;99.90;;;;;;5100289;28;20281;-81
2022/10/13 10:32:05;;;;;;;8.60;8.40;;;13.50;99.90;;;;;;5098501;28;20240;-80
2022/10/13 10:34:42;;;;;;;8.63;8.43;;;13.60;99.90;;;;;;5082447;28;20246;-82
2022/10/13 10:37:19;;;;;;;8.60;8.40;;;13.70;99.90;;;;;;5098332;28;20244;-81
2022/10/13 10:39:58;;;;;;;9.07;8.77;;;13.80;99.90;;;;;;5099911;28;20229;-79
2022/10/13 10:43:04;;;;;;;8.77;8.57;;;13.80;99.90;;;;;;5091414;28;20275;-80
2022/10/13 10:45:37;;;;;;;9.30;9.00;;;13.80;99.90;;;;;;5055341;28;20269;-79
2022/10/13 10:48:18;;;;;;;9.00;8.70;;;13.80;99.90;;;;;;5057807;28;20227;-79
2022/10/13 10:50:47;;;;;;;9.20;8.90;;;13.90;99.90;;;;;;5058276;28;20215;-80
2022/10/13 10:53:22;;;;;;;9.30;9.00;;;13.90;99.90;;;;;;5059404;28;20241;-78
2022/10/13 10:55:55;;;;;;;9.20;8.90;;;13.90;99.90;;;;;;5093271;28;20225;-79
2022/10/13 10:58:37;;;;;;;9.20;8.90;;;14.00;99.90;;;;;;5084090;28;20233;-80
2022/10/13 11:01:18;;;;;;;8.97;8.73;;;14.10;99.90;;;;;;5082084;28;20313;-79
2022/10/13 11:03:55;;;;;;;9.07;8.77;;;14.20;99.90;;;;;;5083412;28;20280;-79
2022/10/13 11:06:33;;;;;;;8.83;8.63;;;14.30;99.90;;;;;;5077224;28;20313;-79
2022/10/13 11:09:00;;;;;;;8.90;8.67;;;14.40;99.90;;;;;;5076869;28;20230;-78
2022/10/13 11:11:40;;;;;;;9.15;8.85;;;14.50;99.90;;;;;;5076453;28;20238;-79
2022/10/13 11:14:38;;;;;;;9.20;8.90;;;14.60;99.90;;;;;;5077475;28;20218;-79
2022/10/13 11:17:20;;;;;;;9.27;8.97;;;14.70;99.90;;;;;;5061238;28;20262;-80
2022/10/13 11:19:50;;;;;;;9.50;9.20;;;14.70;99.90;;;;;;5057339;28;20231;-78
2022/10/13 11:22:21;;;;;;;9.23;8.93;;;14.80;99.90;;;;;;5056184;28;20219;-79
2022/10/13 11:24:59;;;;;;;8.83;8.63;;;14.80;99.90;;;;;;5056693;28;20238;-79
2022/10/13 11:27:43;;;;;;;9.18;8.88;;;14.90;99.90;;;;;;5057663;28;20230;-78
2022/10/13 11:30:48;;;;;;;9.35;9.05;;;14.90;99.90;;;;;;5056176;28;20223;-79
2022/10/13 11:33:55;;;;;;;9.20;8.90;;;15.00;99.90;;;;;;5067245;28;20234;-78
2022/10/13 11:36:54;;;;;;;9.10;8.80;;;15.00;99.90;;;;;;5079108;28;20263;-79
2022/10/13 11:40:11;;;;;;;8.98;8.70;;;15.10;99.90;;;;;;5085082;28;20246;-78
2022/10/13 11:43:16;;;;;;;8.88;8.68;;;15.20;99.90;;;;;;5056527;28;20266;-78
2022/10/13 11:46:23;;;;;;;8.88;8.68;;;15.30;99.90;;;;;;5055154;28;20262;-77
2022/10/13 11:49:15;;;;;;;8.48;8.27;;;15.40;99.90;;;;;;5072550;28;20228;-79
2022/10/13 11:52:11;;;;;;;9.23;8.93;;;15.50;99.90;;;;;;5097095;28;20252;-78
2022/10/13 11:54:48;;;;;;;9.40;9.10;;;15.70;99.90;;;;;;5096181;28;20229;-78
2022/10/13 11:57:21;;;;;;;9.20;8.90;;;15.70;99.90;;;;;;5097488;28;20235;-80
2022/10/13 11:59:54;;;;;;;9.35;9.05;;;15.70;99.90;;;;;;5096877;28;20315;-79
2022/10/13 12:02:25;;;;;;;9.18;8.88;;;15.60;99.90;;;;;;5098497;28;20226;-78
2022/10/13 12:05:07;;;;;;;9.13;8.82;;;15.60;99.90;;;;;;5095376;28;20236;-78
2022/10/13 12:07:40;;;;;;;9.20;8.90;;;15.60;99.90;;;;;;5096033;28;20267;-79
2022/10/13 12:10:22;;;;;;;9.27;8.98;;;15.60;99.90;;;;;;5097649;28;20261;-78
2022/10/13 12:12:50;;;;;;;9.27;8.98;;;15.60;99.90;;;;;;5091300;28;20240;-78
2022/10/13 12:15:34;;;;;;;9.30;9.00;;;15.60;99.90;;;;;;5102100;28;20230;-78
2022/10/13 12:18:02;;;;;;;9.15;8.85;;;15.70;99.90;;;;;;5099445;28;20261;-78
2022/10/13 12:20:32;;;;;;;9.13;8.82;;;15.70;99.90;;;;;;5098250;28;20281;-78
2022/10/13 12:23:01;;;;;;;9.43;9.13;;;15.70;99.90;;;;;;5096940;28;20229;-77
2022/10/13 12:25:32;;;;;;;9.10;8.80;;;15.70;99.90;;;;;;5096106;28;20236;-79
2022/10/13 12:28:01;;;;;;;9.02;8.77;;;15.60;99.90;;;;;;5097148;28;20275;-79
2022/10/13 12:30:34;;;;;;;8.90;8.70;;;15.60;99.90;;;;;;5097260;28;20257;-78
2022/10/13 12:33:04;;;;;;;8.65;8.45;;;15.60;99.90;;;;;;5097354;28;20237;-78
2022/10/13 12:35:34;;;;;;;8.98;8.77;;;15.60;99.90;;;;;;5096364;28;20289;-78
2022/10/13 12:38:07;;;;;;;8.75;8.55;;;15.60;99.90;;;;;;5096736;28;20222;-78
2022/10/13 12:40:35;;;;;;;8.63;8.43;;;15.50;99.90;;;;;;5095962;28;20289;-78
2022/10/13 12:43:05;;;;;;;8.70;8.50;;;15.50;99.90;;;;;;5085978;28;20692;-78
2022/10/13 12:45:34;;;;;;;8.63;8.43;;;15.70;99.90;;;;;;5092926;28;20230;-81
2022/10/13 12:48:02;;;;;;;8.73;8.52;;;15.60;99.90;;;;;;5084452;28;20230;-78
2022/10/13 12:50:38;;;;;;;8.25;8.05;;;15.70;99.90;;;;;;5096100;28;20281;-77
2022/10/13 12:53:19;;;;;;;8.45;8.25;;;15.80;99.90;;;;;;5099502;28;20260;-76
2022/10/13 12:55:57;;;;;;;8.50;8.30;;;15.70;99.90;;;;;;5103520;27;20225;-77
2022/10/13 12:58:29;;;;;;;8.93;8.73;;;15.70;99.90;;;;;;5111388;27;20248;-77
2022/10/13 13:01:04;;;;;;;9.30;9.00;;;15.70;99.90;;;;;;5120472;27;20266;-78
2022/10/13 13:03:32;;;;;;;8.80;8.60;;;15.70;99.90;;;;;;5119575;27;20236;-75
2022/10/13 13:06:22;;;;;;;9.25;8.95;;;15.60;99.90;;;;;;5116755;28;20245;-75
2022/10/13 13:09:14;;;;;;;9.35;9.05;;;15.60;99.90;;;;;;5113459;28;20210;-75
2022/10/13 13:11:42;;;;;;;9.27;8.98;;;15.60;99.90;;;;;;5112701;28;20217;-75
2022/10/13 13:14:37;;;;;;;8.93;8.73;;;15.60;99.90;;;;;;5113088;28;20222;-76
2022/10/13 13:17:21;;;;;;;9.40;9.10;;;15.70;99.90;;;;;;5111595;28;20243;-77